sensor_id;sensor_type;location;lat;lon;timestamp;temperature;humidity
5924;DHT22;2987;50.884;14.818;2023-04-08T00:00:13;4.50;99.90
5924;DHT22;2987;50.884;14.818;2023-04-08T00:02:39;4.50;99.90
5924;DHT22;2987;50.884;14.818;2023-04-08T00:05:06;4.60;99.90
5924;DHT22;2987;50.884;14.818;2023-04-08T00:07:35;4.60;99.90
5924;DHT22;2987;50.884;14.818;2023-04-08T00:10:02;4.60;99.90
5924;DHT22;2987;50.884;14.818;2023-04-08T00:12:28;4.60;99.90
5924;DHT22;2987;50.884;14.818;2023-04-08T00:14:54;4.60;99.90
5924;DHT22;2987;50.884;14.818;2023-04-08T00:17:20;4.60;99.90
5924;DHT22;2987;50.884;14.818;2023-04-08T00:19:46;4.50;99.90
5924;DHT22;2987;50.884;14.818;2023-04-08T00:22:12;4.80;99.90
5924;DHT22;2987;50.884;14.818;2023-04-08T00:24:39;4.60;99.90
5924;DHT22;2987;50.884;14.818;2023-04-08T00:27:05;4.60;99.90
5924;DHT22;2987;50.884;14.818;2023-04-08T00:29:32;4.60;99.90
5924;DHT22;2987;50.884;14.818;2023-04-08T00:31:58;4.60;99.90
5924;DHT22;2987;50.884;14.818;2023-04-08T00:34:24;4.60;99.90
5924;DHT22;2987;50.884;14.818;2023-04-08T00:36:53;4.60;99.90
5924;DHT22;2987;50.884;14.818;2023-04-08T00:39:20;4.80;99.90
5924;DHT22;2987;50.884;14.818;2023-04-08T00:41:46;4.90;99.90
5924;DHT22;2987;50.884;14.818;2023-04-08T00:44:12;4.60;99.90
5924;DHT22;2987;50.884;14.818;2023-04-08T00:46:39;4.60;99.90
5924;DHT22;2987;50.884;14.818;2023-04-08T00:49:06;4.90;99.90
5924;DHT22;2987;50.884;14.818;2023-04-08T00:51:33;4.80;99.90
5924;DHT22;2987;50.884;14.818;2023-04-08T00:54:02;4.60;99.90
5924;DHT22;2987;50.884;14.818;2023-04-08T00:56:31;4.60;99.90
5924;DHT22;2987;50.884;14.818;2023-04-08T00:58:59;4.60;99.90
5924;DHT22;2987;50.884;14.818;2023-04-08T01:01:49;4.60;99.90
5924;DHT22;2987;50.884;14.818;2023-04-08T01:12:21;4.60;99.90
5924;DHT22;2987;50.884;14.818;2023-04-08T01:14:55;4.60;99.90
5924;DHT22;2987;50.884;14.818;2023-04-08T01:17:23;4.50;99.90
5924;DHT22;2987;50.884;14.818;2023-04-08T01:19:49;4.60;99.90
5924;DHT22;2987;50.884;14.818;2023-04-08T01:25:19;4.60;99.90
5924;DHT22;2987;50.884;14.818;2023-04-08T01:27:47;4.60;99.90
5924;DHT22;2987;50.884;14.818;2023-04-08T01:32:40;4.90;99.90
5924;DHT22;2987;50.884;14.818;2023-04-08T01:35:09;4.70;99.90
5924;DHT22;2987;50.884;14.818;2023-04-08T01:37:37;4.80;99.90
5924;DHT22;2987;50.884;14.818;2023-04-08T01:40:07;4.80;99.90
5924;DHT22;2987;50.884;14.818;2023-04-08T01:42:37;4.90;99.90
5924;DHT22;2987;50.884;14.818;2023-04-08T01:45:05;4.80;99.90
5924;DHT22;2987;50.884;14.818;2023-04-08T01:47:32;4.80;99.90
5924;DHT22;2987;50.884;14.818;2023-04-08T01:50:00;4.80;99.90
5924;DHT22;2987;50.884;14.818;2023-04-08T01:52:28;4.80;99.90
5924;DHT22;2987;50.884;14.818;2023-04-08T01:54:55;4.80;99.90
5924;DHT22;2987;50.884;14.818;2023-04-08T01:57:26;5.00;99.90
5924;DHT22;2987;50.884;14.818;2023-04-08T01:59:58;4.80;99.90
5924;DHT22;2987;50.884;14.818;2023-04-08T02:02:26;4.70;99.90
5924;DHT22;2987;50.884;14.818;2023-04-08T02:04:55;4.50;99.90
5924;DHT22;2987;50.884;14.818;2023-04-08T02:07:21;4.50;99.90
5924;DHT22;2987;50.884;14.818;2023-04-08T02:09:49;4.70;99.90
5924;DHT22;2987;50.884;14.818;2023-04-08T02:12:16;4.70;99.90
5924;DHT22;2987;50.884;14.818;2023-04-08T02:14:42;4.60;99.90
5924;DHT22;2987;50.884;14.818;2023-04-08T02:17:13;4.80;99.90
5924;DHT22;2987;50.884;14.818;2023-04-08T02:19:47;4.60;99.90
5924;DHT22;2987;50.884;14.818;2023-04-08T02:22:39;4.60;99.90
5924;DHT22;2987;50.884;14.818;2023-04-08T02:25:12;4.80;99.90
5924;DHT22;2987;50.884;14.818;2023-04-08T02:27:39;4.90;99.90
5924;DHT22;2987;50.884;14.818;2023-04-08T02:30:07;4.60;99.90
5924;DHT22;2987;50.884;14.818;2023-04-08T02:32:36;4.60;99.90
5924;DHT22;2987;50.884;14.818;2023-04-08T02:35:05;4.80;99.90
5924;DHT22;2987;50.884;14.818;2023-04-08T02:37:32;4.60;99.90
5924;DHT22;2987;50.884;14.818;2023-04-08T02:39:59;4.80;99.90
5924;DHT22;2987;50.884;14.818;2023-04-08T02:42:25;4.90;99.90
5924;DHT22;2987;50.884;14.818;2023-04-08T02:44:52;4.60;99.90
5924;DHT22;2987;50.884;14.818;2023-04-08T02:47:18;4.80;99.90
5924;DHT22;2987;50.884;14.818;2023-04-08T02:49:44;4.80;99.90
5924;DHT22;2987;50.884;14.818;2023-04-08T02:52:11;5.00;99.90
5924;DHT22;2987;50.884;14.818;2023-04-08T02:54:38;4.70;99.90
5924;DHT22;2987;50.884;14.818;2023-04-08T02:57:04;5.10;99.90
5924;DHT22;2987;50.884;14.818;2023-04-08T02:59:30;5.00;99.90
5924;DHT22;2987;50.884;14.818;2023-04-08T03:01:56;4.80;99.90
5924;DHT22;2987;50.884;14.818;2023-04-08T03:04:22;4.80;99.90
5924;DHT22;2987;50.884;14.818;2023-04-08T03:06:48;4.80;99.90
5924;DHT22;2987;50.884;14.818;2023-04-08T03:09:15;4.90;99.90
5924;DHT22;2987;50.884;14.818;2023-04-08T03:11:41;5.00;99.90
5924;DHT22;2987;50.884;14.818;2023-04-08T03:14:09;4.90;99.90
5924;DHT22;2987;50.884;14.818;2023-04-08T03:16:36;5.10;99.90
5924;DHT22;2987;50.884;14.818;2023-04-08T03:19:02;4.80;99.90
5924;DHT22;2987;50.884;14.818;2023-04-08T03:21:28;4.90;99.90
5924;DHT22;2987;50.884;14.818;2023-04-08T03:23:56;5.30;99.90
5924;DHT22;2987;50.884;14.818;2023-04-08T03:26:22;4.90;99.90
5924;DHT22;2987;50.884;14.818;2023-04-08T03:28:49;4.80;99.90
5924;DHT22;2987;50.884;14.818;2023-04-08T03:31:15;4.90;99.90
5924;DHT22;2987;50.884;14.818;2023-04-08T03:33:41;4.80;99.90
5924;DHT22;2987;50.884;14.818;2023-04-08T03:36:07;4.90;99.90
5924;DHT22;2987;50.884;14.818;2023-04-08T03:38:33;4.80;99.90
5924;DHT22;2987;50.884;14.818;2023-04-08T03:41:00;4.90;99.90
5924;DHT22;2987;50.884;14.818;2023-04-08T03:43:26;5.00;99.90
5924;DHT22;2987;50.884;14.818;2023-04-08T03:45:52;5.10;99.90
5924;DHT22;2987;50.884;14.818;2023-04-08T03:48:18;5.00;99.90
5924;DHT22;2987;50.884;14.818;2023-04-08T03:50:44;4.80;99.90
5924;DHT22;2987;50.884;14.818;2023-04-08T03:53:10;4.90;99.90
5924;DHT22;2987;50.884;14.818;2023-04-08T03:55:38;5.10;99.90
5924;DHT22;2987;50.884;14.818;2023-04-08T03:58:04;4.80;99.90
5924;DHT22;2987;50.884;14.818;2023-04-08T04:00:31;4.80;99.90
5924;DHT22;2987;50.884;14.818;2023-04-08T04:02:57;4.80;99.90
5924;DHT22;2987;50.884;14.818;2023-04-08T04:05:23;4.90;99.90
5924;DHT22;2987;50.884;14.818;2023-04-08T04:07:49;4.70;99.90
5924;DHT22;2987;50.884;14.818;2023-04-08T04:10:16;4.80;99.90
5924;DHT22;2987;50.884;14.818;2023-04-08T04:12:42;4.80;99.90
5924;DHT22;2987;50.884;14.818;2023-04-08T04:15:10;4.80;99.90
5924;DHT22;2987;50.884;14.818;2023-04-08T04:17:36;4.80;99.90
5924;DHT22;2987;50.884;14.818;2023-04-08T04:20:06;4.80;99.90
5924;DHT22;2987;50.884;14.818;2023-04-08T04:22:32;4.80;99.90
5924;DHT22;2987;50.884;14.818;2023-04-08T04:24:58;4.80;99.90
5924;DHT22;2987;50.884;14.818;2023-04-08T04:27:25;4.80;99.90
5924;DHT22;2987;50.884;14.818;2023-04-08T04:29:51;4.80;99.90
5924;DHT22;2987;50.884;14.818;2023-04-08T04:32:17;4.90;99.90
5924;DHT22;2987;50.884;14.818;2023-04-08T04:34:44;4.90;99.90
5924;DHT22;2987;50.884;14.818;2023-04-08T04:37:10;5.10;99.90
5924;DHT22;2987;50.884;14.818;2023-04-08T04:39:36;5.20;99.90
5924;DHT22;2987;50.884;14.818;2023-04-08T04:42:02;5.30;99.90
5924;DHT22;2987;50.884;14.818;2023-04-08T04:44:29;4.90;99.90
5924;DHT22;2987;50.884;14.818;2023-04-08T04:46:55;5.30;99.90
5924;DHT22;2987;50.884;14.818;2023-04-08T04:49:21;4.80;99.90
5924;DHT22;2987;50.884;14.818;2023-04-08T04:51:48;4.90;99.90
5924;DHT22;2987;50.884;14.818;2023-04-08T04:54:14;4.90;99.90
5924;DHT22;2987;50.884;14.818;2023-04-08T04:56:40;5.30;99.90
5924;DHT22;2987;50.884;14.818;2023-04-08T04:59:06;5.10;99.90
5924;DHT22;2987;50.884;14.818;2023-04-08T05:01:33;4.90;99.90
5924;DHT22;2987;50.884;14.818;2023-04-08T05:04:00;5.30;99.90
5924;DHT22;2987;50.884;14.818;2023-04-08T05:06:26;5.10;99.90
5924;DHT22;2987;50.884;14.818;2023-04-08T05:08:52;5.10;99.90
5924;DHT22;2987;50.884;14.818;2023-04-08T05:11:18;4.90;99.90
5924;DHT22;2987;50.884;14.818;2023-04-08T05:13:46;4.90;99.90
5924;DHT22;2987;50.884;14.818;2023-04-08T05:16:13;5.40;99.90
5924;DHT22;2987;50.884;14.818;2023-04-08T05:18:39;5.10;99.90
5924;DHT22;2987;50.884;14.818;2023-04-08T05:21:05;5.20;99.90
5924;DHT22;2987;50.884;14.818;2023-04-08T05:23:31;4.90;99.90
5924;DHT22;2987;50.884;14.818;2023-04-08T05:25:59;5.10;99.90
5924;DHT22;2987;50.884;14.818;2023-04-08T05:28:26;5.20;99.90
5924;DHT22;2987;50.884;14.818;2023-04-08T05:30:52;5.30;99.90
5924;DHT22;2987;50.884;14.818;2023-04-08T05:33:19;5.10;99.90
5924;DHT22;2987;50.884;14.818;2023-04-08T05:35:46;5.10;99.90
5924;DHT22;2987;50.884;14.818;2023-04-08T05:38:12;5.10;99.90
5924;DHT22;2987;50.884;14.818;2023-04-08T05:40:38;5.10;99.90
5924;DHT22;2987;50.884;14.818;2023-04-08T05:43:04;5.20;99.90
5924;DHT22;2987;50.884;14.818;2023-04-08T05:45:30;5.30;99.90
5924;DHT22;2987;50.884;14.818;2023-04-08T05:47:56;5.30;99.90
5924;DHT22;2987;50.884;14.818;2023-04-08T05:50:23;5.50;99.90
5924;DHT22;2987;50.884;14.818;2023-04-08T05:52:49;5.10;99.90
5924;DHT22;2987;50.884;14.818;2023-04-08T05:55:15;5.20;99.90
5924;DHT22;2987;50.884;14.818;2023-04-08T05:57:41;5.30;99.90
5924;DHT22;2987;50.884;14.818;2023-04-08T06:00:09;5.40;99.90
5924;DHT22;2987;50.884;14.818;2023-04-08T06:02:37;5.70;99.90
5924;DHT22;2987;50.884;14.818;2023-04-08T06:05:03;5.70;99.90
5924;DHT22;2987;50.884;14.818;2023-04-08T06:07:30;5.60;99.90
5924;DHT22;2987;50.884;14.818;2023-04-08T06:09:57;6.00;99.90
5924;DHT22;2987;50.884;14.818;2023-04-08T06:12:23;6.40;99.90
5924;DHT22;2987;50.884;14.818;2023-04-08T06:14:53;6.40;99.90
5924;DHT22;2987;50.884;14.818;2023-04-08T06:17:20;6.30;99.90
5924;DHT22;2987;50.884;14.818;2023-04-08T06:19:46;6.30;99.90
5924;DHT22;2987;50.884;14.818;2023-04-08T06:22:12;6.40;99.90
5924;DHT22;2987;50.884;14.818;2023-04-08T06:24:38;6.30;99.90
5924;DHT22;2987;50.884;14.818;2023-04-08T06:27:04;6.40;99.90
5924;DHT22;2987;50.884;14.818;2023-04-08T06:29:31;6.20;99.90
5924;DHT22;2987;50.884;14.818;2023-04-08T06:31:58;6.30;99.90
5924;DHT22;2987;50.884;14.818;2023-04-08T06:34:25;6.10;99.90
5924;DHT22;2987;50.884;14.818;2023-04-08T06:36:51;6.10;99.90
5924;DHT22;2987;50.884;14.818;2023-04-08T06:39:17;6.10;99.90
5924;DHT22;2987;50.884;14.818;2023-04-08T06:41:45;6.10;99.90
5924;DHT22;2987;50.884;14.818;2023-04-08T06:44:25;6.40;99.90
5924;DHT22;2987;50.884;14.818;2023-04-08T06:46:51;6.60;99.90
5924;DHT22;2987;50.884;14.818;2023-04-08T06:49:17;6.60;99.90
5924;DHT22;2987;50.884;14.818;2023-04-08T06:51:44;6.70;99.90
5924;DHT22;2987;50.884;14.818;2023-04-08T06:54:10;6.90;99.90
5924;DHT22;2987;50.884;14.818;2023-04-08T06:56:36;6.90;99.90
5924;DHT22;2987;50.884;14.818;2023-04-08T06:59:02;7.20;99.90
5924;DHT22;2987;50.884;14.818;2023-04-08T07:01:29;7.10;99.90
5924;DHT22;2987;50.884;14.818;2023-04-08T07:03:57;7.30;99.90
5924;DHT22;2987;50.884;14.818;2023-04-08T07:06:23;7.30;99.90
5924;DHT22;2987;50.884;14.818;2023-04-08T07:08:49;7.20;99.90
5924;DHT22;2987;50.884;14.818;2023-04-08T07:11:16;7.30;99.90
5924;DHT22;2987;50.884;14.818;2023-04-08T07:13:42;7.30;99.90
5924;DHT22;2987;50.884;14.818;2023-04-08T07:16:08;7.30;99.90
5924;DHT22;2987;50.884;14.818;2023-04-08T07:18:35;7.30;99.90
5924;DHT22;2987;50.884;14.818;2023-04-08T07:21:01;7.20;99.90
5924;DHT22;2987;50.884;14.818;2023-04-08T07:23:28;7.10;99.90
5924;DHT22;2987;50.884;14.818;2023-04-08T07:25:54;7.30;99.90
5924;DHT22;2987;50.884;14.818;2023-04-08T07:28:20;6.90;99.90
5924;DHT22;2987;50.884;14.818;2023-04-08T07:30:46;7.20;99.90
5924;DHT22;2987;50.884;14.818;2023-04-08T07:33:13;7.30;99.90
5924;DHT22;2987;50.884;14.818;2023-04-08T07:35:40;7.30;99.90
5924;DHT22;2987;50.884;14.818;2023-04-08T07:38:06;7.30;99.90
5924;DHT22;2987;50.884;14.818;2023-04-08T07:40:36;7.50;99.90
5924;DHT22;2987;50.884;14.818;2023-04-08T07:43:02;7.60;99.90
5924;DHT22;2987;50.884;14.818;2023-04-08T07:45:28;8.00;99.90
5924;DHT22;2987;50.884;14.818;2023-04-08T07:47:54;7.90;99.90
5924;DHT22;2987;50.884;14.818;2023-04-08T07:50:20;8.20;99.90
5924;DHT22;2987;50.884;14.818;2023-04-08T07:52:47;8.30;99.90
5924;DHT22;2987;50.884;14.818;2023-04-08T07:55:13;8.90;99.90
5924;DHT22;2987;50.884;14.818;2023-04-08T07:57:39;8.60;99.90
5924;DHT22;2987;50.884;14.818;2023-04-08T08:00:06;9.20;99.90
5924;DHT22;2987;50.884;14.818;2023-04-08T08:02:39;9.80;99.90
5924;DHT22;2987;50.884;14.818;2023-04-08T08:05:06;9.80;99.90
5924;DHT22;2987;50.884;14.818;2023-04-08T08:07:32;10.00;99.90
5924;DHT22;2987;50.884;14.818;2023-04-08T08:09:58;9.30;99.90
5924;DHT22;2987;50.884;14.818;2023-04-08T08:12:25;9.00;99.90
5924;DHT22;2987;50.884;14.818;2023-04-08T08:14:51;9.00;99.90
5924;DHT22;2987;50.884;14.818;2023-04-08T08:17:20;8.80;99.90
5924;DHT22;2987;50.884;14.818;2023-04-08T08:19:46;8.60;99.90
5924;DHT22;2987;50.884;14.818;2023-04-08T08:22:12;8.50;99.90
5924;DHT22;2987;50.884;14.818;2023-04-08T08:24:38;8.40;99.90
5924;DHT22;2987;50.884;14.818;2023-04-08T08:27:04;7.90;99.90
5924;DHT22;2987;50.884;14.818;2023-04-08T08:29:31;8.00;99.90
5924;DHT22;2987;50.884;14.818;2023-04-08T08:31:57;7.90;99.90
5924;DHT22;2987;50.884;14.818;2023-04-08T08:34:23;7.80;99.90
5924;DHT22;2987;50.884;14.818;2023-04-08T08:36:49;7.90;99.90
5924;DHT22;2987;50.884;14.818;2023-04-08T08:39:15;7.80;99.90
5924;DHT22;2987;50.884;14.818;2023-04-08T08:41:41;8.10;99.90
5924;DHT22;2987;50.884;14.818;2023-04-08T08:44:09;8.10;99.90
5924;DHT22;2987;50.884;14.818;2023-04-08T08:46:35;7.90;99.90
5924;DHT22;2987;50.884;14.818;2023-04-08T08:49:01;7.90;99.90
5924;DHT22;2987;50.884;14.818;2023-04-08T08:51:27;7.90;99.90
5924;DHT22;2987;50.884;14.818;2023-04-08T08:53:54;7.80;99.90
5924;DHT22;2987;50.884;14.818;2023-04-08T08:56:20;8.20;99.90
5924;DHT22;2987;50.884;14.818;2023-04-08T08:58:47;7.90;99.90
5924;DHT22;2987;50.884;14.818;2023-04-08T09:01:34;8.20;99.90
5924;DHT22;2987;50.884;14.818;2023-04-08T09:07:10;8.20;99.90
5924;DHT22;2987;50.884;14.818;2023-04-08T09:09:56;8.30;99.90
5924;DHT22;2987;50.884;14.818;2023-04-08T09:12:23;8.20;99.90
5924;DHT22;2987;50.884;14.818;2023-04-08T09:14:49;8.20;99.90
5924;DHT22;2987;50.884;14.818;2023-04-08T09:17:30;8.40;99.90
5924;DHT22;2987;50.884;14.818;2023-04-08T09:20:14;7.90;99.90
5924;DHT22;2987;50.884;14.818;2023-04-08T09:23:00;8.10;99.90
5924;DHT22;2987;50.884;14.818;2023-04-08T09:25:28;8.00;99.90
5924;DHT22;2987;50.884;14.818;2023-04-08T09:27:55;7.80;99.90
5924;DHT22;2987;50.884;14.818;2023-04-08T09:32:48;7.90;99.90
5924;DHT22;2987;50.884;14.818;2023-04-08T09:35:17;7.90;99.90
5924;DHT22;2987;50.884;14.818;2023-04-08T09:37:43;8.00;99.90
5924;DHT22;2987;50.884;14.818;2023-04-08T09:40:10;8.10;99.90
5924;DHT22;2987;50.884;14.818;2023-04-08T09:42:39;8.30;99.90
5924;DHT22;2987;50.884;14.818;2023-04-08T09:45:06;8.60;99.90
5924;DHT22;2987;50.884;14.818;2023-04-08T09:48:02;8.20;99.90
5924;DHT22;2987;50.884;14.818;2023-04-08T09:50:31;8.20;99.90
5924;DHT22;2987;50.884;14.818;2023-04-08T09:53:02;8.20;99.90
5924;DHT22;2987;50.884;14.818;2023-04-08T09:55:35;8.50;99.90
5924;DHT22;2987;50.884;14.818;2023-04-08T09:58:07;8.60;99.90
5924;DHT22;2987;50.884;14.818;2023-04-08T10:00:40;8.60;99.90
5924;DHT22;2987;50.884;14.818;2023-04-08T10:03:26;9.50;99.90
5924;DHT22;2987;50.884;14.818;2023-04-08T10:05:54;9.80;99.90
5924;DHT22;2987;50.884;14.818;2023-04-08T10:08:24;10.30;99.90
5924;DHT22;2987;50.884;14.818;2023-04-08T10:10:50;10.20;99.90
5924;DHT22;2987;50.884;14.818;2023-04-08T10:13:17;10.10;99.90
5924;DHT22;2987;50.884;14.818;2023-04-08T10:15:43;10.20;99.90
5924;DHT22;2987;50.884;14.818;2023-04-08T10:18:30;10.30;99.90
5924;DHT22;2987;50.884;14.818;2023-04-08T10:20:57;9.90;99.90
5924;DHT22;2987;50.884;14.818;2023-04-08T10:23:59;9.90;99.90
5924;DHT22;2987;50.884;14.818;2023-04-08T10:26:33;9.80;99.90
5924;DHT22;2987;50.884;14.818;2023-04-08T10:32:01;9.90;99.90
5924;DHT22;2987;50.884;14.818;2023-04-08T10:34:28;9.80;99.90
5924;DHT22;2987;50.884;14.818;2023-04-08T10:39:20;9.70;99.90
5924;DHT22;2987;50.884;14.818;2023-04-08T10:41:48;9.50;99.90
5924;DHT22;2987;50.884;14.818;2023-04-08T10:44:19;9.50;99.90
5924;DHT22;2987;50.884;14.818;2023-04-08T10:46:47;9.50;99.90
5924;DHT22;2987;50.884;14.818;2023-04-08T10:49:17;9.50;99.90
5924;DHT22;2987;50.884;14.818;2023-04-08T10:51:44;9.60;99.90
5924;DHT22;2987;50.884;14.818;2023-04-08T10:54:13;9.60;99.90
5924;DHT22;2987;50.884;14.818;2023-04-08T10:56:44;9.70;99.90
5924;DHT22;2987;50.884;14.818;2023-04-08T10:59:12;9.70;99.90
5924;DHT22;2987;50.884;14.818;2023-04-08T11:01:43;10.10;99.90
5924;DHT22;2987;50.884;14.818;2023-04-08T11:04:12;10.30;99.90
5924;DHT22;2987;50.884;14.818;2023-04-08T11:06:38;10.30;99.90
5924;DHT22;2987;50.884;14.818;2023-04-08T11:09:04;10.20;99.90
5924;DHT22;2987;50.884;14.818;2023-04-08T11:11:31;10.20;99.90
5924;DHT22;2987;50.884;14.818;2023-04-08T11:13:57;10.30;99.90
5924;DHT22;2987;50.884;14.818;2023-04-08T11:16:23;10.10;99.90
5924;DHT22;2987;50.884;14.818;2023-04-08T11:18:52;10.10;99.90
5924;DHT22;2987;50.884;14.818;2023-04-08T11:21:19;10.00;99.90
5924;DHT22;2987;50.884;14.818;2023-04-08T11:23:49;9.90;99.90
5924;DHT22;2987;50.884;14.818;2023-04-08T11:26:17;9.90;99.90
5924;DHT22;2987;50.884;14.818;2023-04-08T11:28:43;9.90;99.90
5924;DHT22;2987;50.884;14.818;2023-04-08T11:31:11;10.00;99.90
5924;DHT22;2987;50.884;14.818;2023-04-08T11:33:45;9.90;99.90
5924;DHT22;2987;50.884;14.818;2023-04-08T11:36:17;10.00;99.90
5924;DHT22;2987;50.884;14.818;2023-04-08T11:38:43;10.10;99.90
5924;DHT22;2987;50.884;14.818;2023-04-08T11:41:10;10.20;99.90
5924;DHT22;2987;50.884;14.818;2023-04-08T11:43:37;10.30;99.90
5924;DHT22;2987;50.884;14.818;2023-04-08T11:46:10;10.20;99.90
5924;DHT22;2987;50.884;14.818;2023-04-08T11:48:36;10.20;99.90
5924;DHT22;2987;50.884;14.818;2023-04-08T11:51:05;10.40;99.90
5924;DHT22;2987;50.884;14.818;2023-04-08T11:53:36;10.30;99.90
5924;DHT22;2987;50.884;14.818;2023-04-08T11:56:21;10.20;99.90
5924;DHT22;2987;50.884;14.818;2023-04-08T11:58:50;9.80;99.90
5924;DHT22;2987;50.884;14.818;2023-04-08T12:01:17;9.40;99.90
5924;DHT22;2987;50.884;14.818;2023-04-08T12:04:00;9.40;99.90
5924;DHT22;2987;50.884;14.818;2023-04-08T12:06:28;9.60;99.90
5924;DHT22;2987;50.884;14.818;2023-04-08T12:08:55;9.50;99.90
5924;DHT22;2987;50.884;14.818;2023-04-08T12:11:22;9.50;99.90
5924;DHT22;2987;50.884;14.818;2023-04-08T12:13:49;9.50;99.90
5924;DHT22;2987;50.884;14.818;2023-04-08T12:16:16;9.20;99.90
5924;DHT22;2987;50.884;14.818;2023-04-08T12:18:42;9.30;99.90
5924;DHT22;2987;50.884;14.818;2023-04-08T12:21:08;9.30;99.90
5924;DHT22;2987;50.884;14.818;2023-04-08T12:23:34;9.50;99.90
5924;DHT22;2987;50.884;14.818;2023-04-08T12:26:00;9.60;99.90
5924;DHT22;2987;50.884;14.818;2023-04-08T12:28:27;9.60;99.90
5924;DHT22;2987;50.884;14.818;2023-04-08T12:30:53;9.50;99.90
5924;DHT22;2987;50.884;14.818;2023-04-08T12:33:19;9.80;99.90
5924;DHT22;2987;50.884;14.818;2023-04-08T12:35:45;9.70;99.90
5924;DHT22;2987;50.884;14.818;2023-04-08T12:38:11;9.90;99.90
5924;DHT22;2987;50.884;14.818;2023-04-08T12:40:38;9.90;99.90
5924;DHT22;2987;50.884;14.818;2023-04-08T12:43:04;10.00;99.90
5924;DHT22;2987;50.884;14.818;2023-04-08T12:45:30;9.80;99.90
5924;DHT22;2987;50.884;14.818;2023-04-08T12:47:56;9.80;99.90
5924;DHT22;2987;50.884;14.818;2023-04-08T12:50:22;9.70;99.90
5924;DHT22;2987;50.884;14.818;2023-04-08T12:52:48;9.80;99.90
5924;DHT22;2987;50.884;14.818;2023-04-08T12:55:15;9.90;99.90
5924;DHT22;2987;50.884;14.818;2023-04-08T12:57:41;10.30;99.90
5924;DHT22;2987;50.884;14.818;2023-04-08T13:00:07;10.00;99.90
5924;DHT22;2987;50.884;14.818;2023-04-08T13:02:36;9.90;99.90
5924;DHT22;2987;50.884;14.818;2023-04-08T13:05:02;9.90;99.90
5924;DHT22;2987;50.884;14.818;2023-04-08T13:07:28;9.80;99.90
5924;DHT22;2987;50.884;14.818;2023-04-08T13:09:54;9.70;99.90
5924;DHT22;2987;50.884;14.818;2023-04-08T13:12:20;10.00;99.90
5924;DHT22;2987;50.884;14.818;2023-04-08T13:14:47;10.20;99.90
5924;DHT22;2987;50.884;14.818;2023-04-08T13:17:13;9.90;99.90
5924;DHT22;2987;50.884;14.818;2023-04-08T13:19:39;10.20;99.90
5924;DHT22;2987;50.884;14.818;2023-04-08T13:22:06;9.90;99.90
5924;DHT22;2987;50.884;14.818;2023-04-08T13:24:32;9.90;99.90
5924;DHT22;2987;50.884;14.818;2023-04-08T13:26:58;9.90;99.90
5924;DHT22;2987;50.884;14.818;2023-04-08T13:29:24;9.60;99.90
5924;DHT22;2987;50.884;14.818;2023-04-08T13:31:51;9.50;99.90
5924;DHT22;2987;50.884;14.818;2023-04-08T13:34:18;9.40;99.90
5924;DHT22;2987;50.884;14.818;2023-04-08T13:36:44;9.50;99.90
5924;DHT22;2987;50.884;14.818;2023-04-08T13:39:10;9.20;99.90
5924;DHT22;2987;50.884;14.818;2023-04-08T13:41:36;9.00;99.90
5924;DHT22;2987;50.884;14.818;2023-04-08T13:44:02;9.20;99.90
5924;DHT22;2987;50.884;14.818;2023-04-08T13:46:28;9.10;99.90
5924;DHT22;2987;50.884;14.818;2023-04-08T13:48:55;9.10;99.90
5924;DHT22;2987;50.884;14.818;2023-04-08T13:51:21;9.10;99.90
5924;DHT22;2987;50.884;14.818;2023-04-08T13:53:47;9.00;99.90
5924;DHT22;2987;50.884;14.818;2023-04-08T13:56:13;9.20;99.90
5924;DHT22;2987;50.884;14.818;2023-04-08T13:58:39;8.90;99.90
5924;DHT22;2987;50.884;14.818;2023-04-08T14:01:05;9.00;99.90
5924;DHT22;2987;50.884;14.818;2023-04-08T14:03:31;9.10;99.90
5924;DHT22;2987;50.884;14.818;2023-04-08T14:05:57;9.10;99.90
5924;DHT22;2987;50.884;14.818;2023-04-08T14:08:23;9.00;99.90
5924;DHT22;2987;50.884;14.818;2023-04-08T14:10:50;9.50;99.90
5924;DHT22;2987;50.884;14.818;2023-04-08T14:13:17;9.10;99.90
5924;DHT22;2987;50.884;14.818;2023-04-08T14:15:43;8.90;99.90
5924;DHT22;2987;50.884;14.818;2023-04-08T14:18:09;8.80;99.90
5924;DHT22;2987;50.884;14.818;2023-04-08T14:20:38;8.70;99.90
5924;DHT22;2987;50.884;14.818;2023-04-08T14:23:04;8.60;99.90
5924;DHT22;2987;50.884;14.818;2023-04-08T14:25:30;8.70;99.90
5924;DHT22;2987;50.884;14.818;2023-04-08T14:27:57;8.60;99.90
5924;DHT22;2987;50.884;14.818;2023-04-08T14:30:23;8.60;99.90
5924;DHT22;2987;50.884;14.818;2023-04-08T14:32:49;8.50;99.90
5924;DHT22;2987;50.884;14.818;2023-04-08T14:35:15;8.60;99.90
5924;DHT22;2987;50.884;14.818;2023-04-08T14:37:42;8.50;99.90
5924;DHT22;2987;50.884;14.818;2023-04-08T14:40:08;8.70;99.90
5924;DHT22;2987;50.884;14.818;2023-04-08T14:42:38;8.90;99.90
5924;DHT22;2987;50.884;14.818;2023-04-08T14:45:04;8.90;99.90
5924;DHT22;2987;50.884;14.818;2023-04-08T14:47:30;9.00;99.90
5924;DHT22;2987;50.884;14.818;2023-04-08T14:49:57;8.90;99.90
5924;DHT22;2987;50.884;14.818;2023-04-08T14:52:23;9.20;99.90
5924;DHT22;2987;50.884;14.818;2023-04-08T14:54:49;9.10;99.90
5924;DHT22;2987;50.884;14.818;2023-04-08T14:57:16;9.00;99.90
5924;DHT22;2987;50.884;14.818;2023-04-08T14:59:42;9.20;99.90
5924;DHT22;2987;50.884;14.818;2023-04-08T15:02:09;9.20;99.90
5924;DHT22;2987;50.884;14.818;2023-04-08T15:04:35;9.20;99.90
5924;DHT22;2987;50.884;14.818;2023-04-08T15:07:02;8.80;99.90
5924;DHT22;2987;50.884;14.818;2023-04-08T15:09:28;9.10;99.90
5924;DHT22;2987;50.884;14.818;2023-04-08T15:11:54;8.80;99.90
5924;DHT22;2987;50.884;14.818;2023-04-08T15:14:21;8.80;99.90
5924;DHT22;2987;50.884;14.818;2023-04-08T15:16:47;8.90;99.90
5924;DHT22;2987;50.884;14.818;2023-04-08T15:19:13;8.70;99.90
5924;DHT22;2987;50.884;14.818;2023-04-08T15:21:39;8.80;99.90
5924;DHT22;2987;50.884;14.818;2023-04-08T15:24:05;8.60;99.90
5924;DHT22;2987;50.884;14.818;2023-04-08T15:26:31;8.50;99.90
5924;DHT22;2987;50.884;14.818;2023-04-08T15:28:57;8.60;99.90
5924;DHT22;2987;50.884;14.818;2023-04-08T15:31:24;8.70;99.90
5924;DHT22;2987;50.884;14.818;2023-04-08T15:33:50;8.80;99.90
5924;DHT22;2987;50.884;14.818;2023-04-08T15:36:17;8.70;99.90
5924;DHT22;2987;50.884;14.818;2023-04-08T15:38:47;8.90;99.90
5924;DHT22;2987;50.884;14.818;2023-04-08T15:41:15;8.80;99.90
5924;DHT22;2987;50.884;14.818;2023-04-08T15:43:43;9.10;99.90
5924;DHT22;2987;50.884;14.818;2023-04-08T15:46:10;8.80;99.90
5924;DHT22;2987;50.884;14.818;2023-04-08T15:48:36;8.90;99.90
5924;DHT22;2987;50.884;14.818;2023-04-08T15:51:06;8.70;99.90
5924;DHT22;2987;50.884;14.818;2023-04-08T15:53:33;8.50;99.90
5924;DHT22;2987;50.884;14.818;2023-04-08T15:55:59;8.50;99.90
5924;DHT22;2987;50.884;14.818;2023-04-08T15:58:28;8.80;99.90
5924;DHT22;2987;50.884;14.818;2023-04-08T16:00:54;8.40;99.90
5924;DHT22;2987;50.884;14.818;2023-04-08T16:03:23;8.30;99.90
5924;DHT22;2987;50.884;14.818;2023-04-08T16:05:49;8.20;99.90
5924;DHT22;2987;50.884;14.818;2023-04-08T16:08:15;8.50;99.90
5924;DHT22;2987;50.884;14.818;2023-04-08T16:10:41;7.90;99.90
5924;DHT22;2987;50.884;14.818;2023-04-08T16:13:07;8.10;99.90
5924;DHT22;2987;50.884;14.818;2023-04-08T16:15:34;7.90;99.90
5924;DHT22;2987;50.884;14.818;2023-04-08T16:18:01;8.00;99.90
5924;DHT22;2987;50.884;14.818;2023-04-08T16:20:28;7.90;99.90
5924;DHT22;2987;50.884;14.818;2023-04-08T16:22:54;7.80;99.90
5924;DHT22;2987;50.884;14.818;2023-04-08T16:25:20;8.20;99.90